createdAt,value
2022-10-29T00:00:52.300Z,7.58
2022-10-29T00:01:52.383Z,7.55
2022-10-29T00:02:52.311Z,7.60
2022-10-29T00:03:52.257Z,7.63
2022-10-29T00:04:53.470Z,7.69
2022-10-29T00:05:52.274Z,7.87
2022-10-29T00:06:52.190Z,7.97
2022-10-29T00:07:52.376Z,7.99
2022-10-29T00:08:52.164Z,8.04
2022-10-29T00:09:52.424Z,8.10
2022-10-29T00:10:52.162Z,8.10
2022-10-29T00:11:52.126Z,8.08
2022-10-29T00:12:52.106Z,8.07
2022-10-29T00:13:52.115Z,8.04
2022-10-29T00:14:52.092Z,8.00
2022-10-29T00:15:52.130Z,7.92
2022-10-29T00:16:52.079Z,7.87
2022-10-29T00:17:52.148Z,7.82
2022-10-29T00:18:52.053Z,7.79
2022-10-29T00:19:52.075Z,7.78
2022-10-29T00:20:52.040Z,7.75
2022-10-29T00:21:52.061Z,7.74
2022-10-29T00:22:52.237Z,7.72
2022-10-29T00:23:51.996Z,7.72
2022-10-29T00:24:51.988Z,7.71
2022-10-29T00:25:51.984Z,7.72
2022-10-29T00:26:51.977Z,7.71
2022-10-29T00:27:51.964Z,7.67
2022-10-29T00:28:51.956Z,7.67
2022-10-29T00:29:51.941Z,7.67
2022-10-29T00:30:51.972Z,7.67
2022-10-29T00:31:51.996Z,7.67
2022-10-29T00:32:52.000Z,7.72
2022-10-29T00:33:51.880Z,7.75
2022-10-29T00:34:51.892Z,7.77
2022-10-29T00:35:51.859Z,7.79
2022-10-29T00:36:51.854Z,7.84
2022-10-29T00:37:51.938Z,7.84
2022-10-29T00:38:51.834Z,7.84
2022-10-29T00:39:51.859Z,7.84
2022-10-29T00:40:51.807Z,7.81
2022-10-29T00:41:51.807Z,7.79
2022-10-29T00:42:51.827Z,7.78
2022-10-29T00:43:51.859Z,7.79
2022-10-29T00:44:51.778Z,7.82
2022-10-29T00:45:51.777Z,7.84
2022-10-29T00:46:51.756Z,7.85
2022-10-29T00:47:51.722Z,7.90
2022-10-29T00:48:51.736Z,7.87
2022-10-29T00:49:51.731Z,7.85
2022-10-29T00:50:51.693Z,7.84
2022-10-29T00:51:51.698Z,7.81
2022-10-29T00:52:51.672Z,7.78
2022-10-29T00:53:51.712Z,7.78
2022-10-29T00:54:51.655Z,7.78
2022-10-29T00:55:51.657Z,7.75
2022-10-29T00:56:51.656Z,7.74
2022-10-29T00:57:51.646Z,7.71
2022-10-29T00:58:51.616Z,7.69
2022-10-29T00:59:51.601Z,7.67
2022-10-29T01:00:51.600Z,7.63
2022-10-29T01:01:51.712Z,7.63
2022-10-29T01:02:51.680Z,7.63
2022-10-29T01:03:51.577Z,7.63
2022-10-29T01:04:51.688Z,7.63
2022-10-29T01:05:51.571Z,7.62
2022-10-29T01:06:51.533Z,7.59
2022-10-29T01:07:51.543Z,7.58
2022-10-29T01:08:51.493Z,7.56
2022-10-29T01:09:51.619Z,7.52
2022-10-29T01:10:51.524Z,7.52
2022-10-29T01:11:51.498Z,7.52
2022-10-29T01:12:51.455Z,7.50
2022-10-29T01:13:51.439Z,7.49
2022-10-29T01:14:51.428Z,7.45
2022-10-29T01:15:51.408Z,7.44
2022-10-29T01:16:51.462Z,7.44
2022-10-29T01:17:51.420Z,7.42
2022-10-29T01:18:51.453Z,7.42
2022-10-29T01:19:51.381Z,7.40
2022-10-29T01:20:51.399Z,7.38
2022-10-29T01:21:51.441Z,7.38
2022-10-29T01:22:51.343Z,7.40
2022-10-29T01:23:51.344Z,7.40
2022-10-29T01:24:51.349Z,7.41
2022-10-29T01:25:51.339Z,7.40
2022-10-29T01:26:51.398Z,7.53
2022-10-29T01:27:51.371Z,7.56
2022-10-29T01:28:51.304Z,7.58
2022-10-29T01:29:51.262Z,7.58
2022-10-29T01:30:51.302Z,7.62
2022-10-29T01:31:51.251Z,7.66
2022-10-29T01:32:51.319Z,7.62
2022-10-29T01:33:51.260Z,7.60
2022-10-29T01:34:51.208Z,7.60
2022-10-29T01:35:51.199Z,7.62
2022-10-29T01:36:51.199Z,7.66
2022-10-29T01:37:51.193Z,7.63
2022-10-29T01:38:51.191Z,7.67
2022-10-29T01:39:51.169Z,7.66
2022-10-29T01:40:51.150Z,7.66
2022-10-29T01:41:51.128Z,7.63
2022-10-29T01:42:51.128Z,7.60
2022-10-29T01:43:51.158Z,7.59
2022-10-29T01:44:51.126Z,7.56
2022-10-29T01:45:51.098Z,7.56
2022-10-29T01:46:51.099Z,7.55
2022-10-29T01:47:51.078Z,7.60
2022-10-29T01:48:51.048Z,7.62
2022-10-29T01:49:51.102Z,7.62
2022-10-29T01:50:51.065Z,7.60
2022-10-29T01:51:51.053Z,7.59
2022-10-29T01:52:51.092Z,7.60
2022-10-29T01:53:51.001Z,7.59
2022-10-29T01:54:50.988Z,7.58
2022-10-29T01:55:50.982Z,7.59
2022-10-29T01:56:50.968Z,7.59
2022-10-29T01:57:50.973Z,7.58
2022-10-29T01:58:50.975Z,7.59
2022-10-29T01:59:56.024Z,7.59
2022-10-29T02:00:50.966Z,7.63
2022-10-29T02:01:50.979Z,7.67
2022-10-29T02:02:50.925Z,7.66
2022-10-29T02:03:50.885Z,7.67
2022-10-29T02:04:50.884Z,7.69
2022-10-29T02:05:50.864Z,7.69
2022-10-29T02:06:50.858Z,7.74
2022-10-29T02:07:50.998Z,7.71
2022-10-29T02:08:50.852Z,7.72
2022-10-29T02:09:51.588Z,7.71
2022-10-29T02:10:50.835Z,7.71
2022-10-29T02:11:50.809Z,7.67
2022-10-29T02:12:50.810Z,7.66
2022-10-29T02:13:50.800Z,7.63
2022-10-29T02:14:50.768Z,7.66
2022-10-29T02:15:50.772Z,7.62
2022-10-29T02:16:50.810Z,7.59
2022-10-29T02:17:50.749Z,7.60
2022-10-29T02:18:50.757Z,7.58
2022-10-29T02:19:50.735Z,7.53
2022-10-29T02:20:50.731Z,7.50
2022-10-29T02:21:50.694Z,7.49
2022-10-29T02:22:50.691Z,7.49
2022-10-29T02:23:50.685Z,7.45
2022-10-29T02:24:50.689Z,7.45
2022-10-29T02:25:50.770Z,7.45
2022-10-29T02:26:50.704Z,7.44
2022-10-29T02:27:50.672Z,7.42
2022-10-29T02:28:50.613Z,7.42
2022-10-29T02:29:50.615Z,7.42
2022-10-29T02:30:50.646Z,7.40
2022-10-29T02:31:50.587Z,7.41
2022-10-29T02:32:50.571Z,7.42
2022-10-29T02:33:50.558Z,7.42
2022-10-29T02:34:50.544Z,7.41
2022-10-29T02:35:50.559Z,7.41
2022-10-29T02:36:50.583Z,7.41
2022-10-29T02:37:50.520Z,7.40
2022-10-29T02:38:50.526Z,7.41
2022-10-29T02:39:50.511Z,7.44
2022-10-29T02:40:50.473Z,7.44
2022-10-29T02:41:50.474Z,7.44
2022-10-29T02:42:50.475Z,7.42
2022-10-29T02:43:50.442Z,7.42
2022-10-29T02:44:50.488Z,7.41
2022-10-29T02:45:50.447Z,7.41
2022-10-29T02:46:50.437Z,7.41
2022-10-29T02:47:50.415Z,7.42
2022-10-29T02:48:50.425Z,7.41
2022-10-29T02:49:50.386Z,7.40
2022-10-29T02:50:50.415Z,7.40
2022-10-29T02:51:50.361Z,7.37
2022-10-29T02:52:50.360Z,7.35
2022-10-29T02:53:50.348Z,7.37
2022-10-29T02:54:50.331Z,7.37
2022-10-29T02:55:50.350Z,7.35
2022-10-29T02:56:50.294Z,7.35
2022-10-29T02:57:50.306Z,7.37
2022-10-29T02:58:50.307Z,7.34
2022-10-29T02:59:51.170Z,7.35
2022-10-29T03:00:51.148Z,7.37
2022-10-29T03:01:50.737Z,7.40
2022-10-29T03:02:51.136Z,7.37
2022-10-29T03:03:50.520Z,7.40
2022-10-29T03:04:50.277Z,7.41
2022-10-29T03:05:50.252Z,7.45
2022-10-29T03:06:50.194Z,7.52
2022-10-29T03:07:50.231Z,7.59
2022-10-29T03:08:50.195Z,7.60
2022-10-29T03:09:51.170Z,7.59
2022-10-29T03:10:50.467Z,7.60
2022-10-29T03:11:52.098Z,7.59
2022-10-29T03:12:50.132Z,7.62
2022-10-29T03:13:50.454Z,7.72
2022-10-29T03:14:50.121Z,7.77
2022-10-29T03:15:50.478Z,7.78
2022-10-29T03:16:50.155Z,7.82
2022-10-29T03:17:51.092Z,7.85
2022-10-29T03:18:50.073Z,7.85
2022-10-29T03:19:50.359Z,7.87
2022-10-29T03:20:50.040Z,7.90
2022-10-29T03:21:50.326Z,7.89
2022-10-29T03:22:50.393Z,7.90
2022-10-29T03:23:50.024Z,7.94
2022-10-29T03:24:49.989Z,7.97
2022-10-29T03:25:54.589Z,7.99
2022-10-29T03:26:49.981Z,7.99
2022-10-29T03:27:49.971Z,7.97
2022-10-29T03:28:50.018Z,7.99
2022-10-29T03:29:49.958Z,7.99
2022-10-29T03:30:50.616Z,8.00
2022-10-29T03:31:49.897Z,8.00
2022-10-29T03:32:49.908Z,7.99
2022-10-29T03:33:49.912Z,8.00
2022-10-29T03:34:49.867Z,7.99
2022-10-29T03:35:49.961Z,7.93
2022-10-29T03:36:49.860Z,7.90
2022-10-29T03:37:50.865Z,7.87
2022-10-29T03:38:50.115Z,7.85
2022-10-29T03:39:49.846Z,7.85
2022-10-29T03:40:49.844Z,7.87
2022-10-29T03:41:49.794Z,7.92
2022-10-29T03:42:49.787Z,7.92
2022-10-29T03:43:49.804Z,7.96
2022-10-29T03:44:49.794Z,7.99
2022-10-29T03:45:49.758Z,8.02
2022-10-29T03:46:49.993Z,8.03
2022-10-29T03:47:49.740Z,8.02
2022-10-29T03:48:49.717Z,8.00
2022-10-29T03:49:49.749Z,7.99
2022-10-29T03:50:49.720Z,7.99
2022-10-29T03:51:49.700Z,8.00
2022-10-29T03:52:49.710Z,8.03
2022-10-29T03:53:50.613Z,8.07
2022-10-29T03:54:50.142Z,8.11
2022-10-29T03:55:49.677Z,8.12
2022-10-29T03:56:49.642Z,8.12
2022-10-29T03:57:50.622Z,8.12
2022-10-29T03:58:49.631Z,8.15
2022-10-29T03:59:52.448Z,8.17
2022-10-29T04:00:49.616Z,8.18
2022-10-29T04:01:49.705Z,8.20
2022-10-29T04:02:49.628Z,8.21
2022-10-29T04:03:49.899Z,8.21
2022-10-29T04:04:49.813Z,8.22
2022-10-29T04:05:49.569Z,8.25
2022-10-29T04:06:49.544Z,8.28
2022-10-29T04:07:49.564Z,8.29
2022-10-29T04:08:50.113Z,8.29
2022-10-29T04:09:49.548Z,8.32
2022-10-29T04:10:49.467Z,8.33
2022-10-29T04:11:49.481Z,8.35
2022-10-29T04:12:49.486Z,8.37
2022-10-29T04:13:49.443Z,8.36
2022-10-29T04:15:49.407Z,8.36
2022-10-29T04:16:49.442Z,8.37
2022-10-29T04:17:49.429Z,8.39
2022-10-29T04:18:49.420Z,8.36
2022-10-29T04:19:49.438Z,8.33
2022-10-29T04:27:01.830Z,8.28
2022-10-29T04:28:44.255Z,8.47
2022-10-29T04:29:03.528Z,8.54
2022-10-29T04:30:03.590Z,8.55
2022-10-29T04:31:03.513Z,8.60
2022-10-29T04:32:03.595Z,8.66
2022-10-29T04:33:04.145Z,8.72
2022-10-29T04:34:04.253Z,8.76
2022-10-29T04:35:03.472Z,8.79
2022-10-29T04:36:03.432Z,8.84
2022-10-29T04:37:03.482Z,8.96
2022-10-29T04:38:03.505Z,9.10
2022-10-29T04:39:03.450Z,9.16
2022-10-29T04:40:03.405Z,9.24
2022-10-29T04:41:03.386Z,9.39
2022-10-29T04:42:04.174Z,9.50
2022-10-29T04:43:03.376Z,9.56
2022-10-29T04:44:03.404Z,9.58
2022-10-29T04:45:03.379Z,9.57
2022-10-29T04:46:03.326Z,9.58
2022-10-29T04:47:03.353Z,9.58
2022-10-29T04:48:03.306Z,9.57
2022-10-29T04:49:03.417Z,9.58
2022-10-29T04:50:03.286Z,9.63
2022-10-29T04:51:03.275Z,9.61
2022-10-29T04:52:03.255Z,9.63
2022-10-29T04:53:03.275Z,9.58
2022-10-29T04:54:03.295Z,9.53
2022-10-29T04:55:03.251Z,9.49
2022-10-29T04:56:03.242Z,9.49
2022-10-29T04:57:03.212Z,9.48
2022-10-29T04:58:03.196Z,9.48
2022-10-29T04:59:03.186Z,9.46
2022-10-29T05:00:03.225Z,9.42
2022-10-29T05:01:03.329Z,9.39
2022-10-29T05:02:03.198Z,9.38
2022-10-29T05:03:03.151Z,9.31
2022-10-29T05:04:03.131Z,9.28
2022-10-29T05:05:03.120Z,9.25
2022-10-29T05:06:03.157Z,9.25
2022-10-29T05:07:03.125Z,9.24
2022-10-29T05:08:03.105Z,9.20
2022-10-29T05:09:07.254Z,9.18
2022-10-29T05:10:03.104Z,9.16
2022-10-29T05:11:03.058Z,9.16
2022-10-29T05:12:03.088Z,9.20
2022-10-29T05:13:03.332Z,9.25
2022-10-29T05:14:03.306Z,9.27
2022-10-29T05:15:03.020Z,9.21
2022-10-29T05:16:02.997Z,9.71
2022-10-29T05:17:03.096Z,9.93
2022-10-29T05:18:03.001Z,9.96
2022-10-29T05:19:02.964Z,9.93
2022-10-29T05:20:02.945Z,10.30
2022-10-29T05:21:03.213Z,10.60
2022-10-29T05:22:02.926Z,10.81
2022-10-29T05:23:02.996Z,10.91
2022-10-29T05:24:02.932Z,10.88
2022-10-29T05:25:03.669Z,10.84
2022-10-29T05:26:02.902Z,10.80
2022-10-29T05:27:02.877Z,10.71
2022-10-29T05:28:02.864Z,10.73
2022-10-29T05:29:02.889Z,10.77
2022-10-29T05:30:02.856Z,10.78
2022-10-29T05:31:02.835Z,10.77
2022-10-29T05:32:02.838Z,10.73
2022-10-29T05:33:02.876Z,10.74
2022-10-29T05:34:02.878Z,10.78
2022-10-29T05:35:02.794Z,10.80
2022-10-29T05:36:02.795Z,10.77
2022-10-29T05:37:02.819Z,10.83
2022-10-29T05:38:02.792Z,10.88
2022-10-29T05:39:02.763Z,10.89
2022-10-29T05:40:02.743Z,10.89
2022-10-29T05:41:02.747Z,10.89
2022-10-29T05:42:02.741Z,10.83
2022-10-29T05:43:02.716Z,10.81
2022-10-29T05:44:02.764Z,10.92
2022-10-29T05:45:02.716Z,11.06
2022-10-29T05:46:03.189Z,11.03
2022-10-29T05:47:02.653Z,10.96
2022-10-29T05:48:02.709Z,10.89
2022-10-29T05:49:02.634Z,10.83
2022-10-29T05:50:02.619Z,10.81
2022-10-29T05:51:02.644Z,10.74
2022-10-29T05:52:02.615Z,10.73
2022-10-29T05:53:02.599Z,10.91
2022-10-29T05:54:02.597Z,10.99
2022-10-29T05:55:02.609Z,11.07
2022-10-29T05:56:02.599Z,11.11
2022-10-29T05:57:02.559Z,11.07
2022-10-29T05:58:02.536Z,11.02
2022-10-29T05:59:02.586Z,10.98
2022-10-29T06:00:02.513Z,10.96
2022-10-29T06:01:02.501Z,10.96
2022-10-29T06:02:02.650Z,10.99
2022-10-29T06:03:02.598Z,10.96
2022-10-29T06:04:02.477Z,10.92
2022-10-29T06:05:03.152Z,10.99
2022-10-29T06:06:02.521Z,10.96
2022-10-29T06:07:02.488Z,10.96
2022-10-29T06:08:02.438Z,10.99
2022-10-29T06:09:02.442Z,11.02
2022-10-29T06:10:02.428Z,10.99
2022-10-29T06:11:02.412Z,10.94
2022-10-29T06:12:02.407Z,10.88
2022-10-29T06:13:02.381Z,10.88
2022-10-29T06:14:02.395Z,10.89
2022-10-29T06:15:02.364Z,10.89
2022-10-29T06:16:02.344Z,10.83
2022-10-29T06:17:02.341Z,10.81
2022-10-29T06:18:02.352Z,10.76
2022-10-29T06:19:02.337Z,10.66
2022-10-29T06:20:02.342Z,10.63
2022-10-29T06:21:02.338Z,10.58
2022-10-29T06:22:02.267Z,10.52
2022-10-29T06:23:02.282Z,10.43
2022-10-29T06:24:02.259Z,10.34
2022-10-29T06:25:02.259Z,10.30
2022-10-29T06:26:02.229Z,10.30
2022-10-29T06:27:02.237Z,10.26
2022-10-29T06:28:02.223Z,10.18
2022-10-29T06:29:02.214Z,10.15
2022-10-29T06:30:02.173Z,10.07
2022-10-29T06:31:02.168Z,10.04
2022-10-29T06:32:02.186Z,9.99
2022-10-29T06:33:02.190Z,9.94
2022-10-29T06:34:04.739Z,9.89
2022-10-29T06:35:03.196Z,9.88
2022-10-29T06:36:02.131Z,9.86
2022-10-29T06:37:02.094Z,9.85
2022-10-29T06:38:04.043Z,9.82
2022-10-29T06:39:02.101Z,9.81
2022-10-29T06:40:02.085Z,9.79
2022-10-29T06:41:02.077Z,9.76
2022-10-29T06:42:02.061Z,9.73
2022-10-29T06:43:02.038Z,9.71
2022-10-29T06:44:02.044Z,9.67
2022-10-29T06:45:02.889Z,9.64
2022-10-29T06:46:02.131Z,9.63
2022-10-29T06:47:01.998Z,9.63
2022-10-29T06:48:01.991Z,9.63
2022-10-29T06:49:02.032Z,9.57
2022-10-29T06:50:01.967Z,9.56
2022-10-29T06:51:01.984Z,9.50
2022-10-29T06:52:01.942Z,9.48
2022-10-29T06:53:01.935Z,9.42
2022-10-29T06:54:01.977Z,9.39
2022-10-29T06:55:01.902Z,9.34
2022-10-29T06:56:01.924Z,9.30
2022-10-29T06:57:01.911Z,9.23
2022-10-29T06:58:01.878Z,9.18
2022-10-29T06:59:01.893Z,9.13
2022-10-29T07:00:05.686Z,9.05
2022-10-29T07:01:01.884Z,9.02
2022-10-29T07:02:01.960Z,8.97
2022-10-29T07:03:01.977Z,8.91
2022-10-29T07:04:01.847Z,8.86
2022-10-29T07:05:01.817Z,8.79
2022-10-29T07:06:01.830Z,8.73
2022-10-29T07:07:01.804Z,8.69
2022-10-29T07:08:01.802Z,8.60
2022-10-29T07:09:01.793Z,8.55
2022-10-29T07:10:02.165Z,8.50
2022-10-29T07:11:01.725Z,8.44
2022-10-29T07:12:01.743Z,8.37
2022-10-29T07:13:01.738Z,8.35
2022-10-29T07:14:01.718Z,8.29
2022-10-29T07:15:01.700Z,8.29
2022-10-29T07:16:01.684Z,8.25
2022-10-29T07:17:01.775Z,8.20
2022-10-29T07:18:01.675Z,8.17
2022-10-29T07:19:01.711Z,8.14
2022-10-29T07:20:01.638Z,8.11
2022-10-29T07:21:01.760Z,8.08
2022-10-29T07:22:01.738Z,8.03
2022-10-29T07:23:01.629Z,8.00
2022-10-29T07:24:01.644Z,8.00
2022-10-29T07:25:01.809Z,7.99
2022-10-29T07:26:01.571Z,7.93
2022-10-29T07:27:01.557Z,7.93
2022-10-29T07:28:01.831Z,7.89
2022-10-29T07:29:01.549Z,7.87
2022-10-29T07:30:01.529Z,7.85
2022-10-29T07:31:01.686Z,7.84
2022-10-29T07:32:01.518Z,7.85
2022-10-29T07:33:01.528Z,7.85
2022-10-29T07:34:01.505Z,7.82
2022-10-29T07:35:01.481Z,7.82
2022-10-29T07:36:01.530Z,7.79
2022-10-29T07:37:02.257Z,7.79
2022-10-29T07:38:05.356Z,7.79
2022-10-29T07:39:01.454Z,7.78
2022-10-29T07:40:01.409Z,7.78
2022-10-29T07:41:01.386Z,7.79
2022-10-29T07:42:01.431Z,7.77
2022-10-29T07:43:01.387Z,7.75
2022-10-29T07:44:01.407Z,7.74
2022-10-29T07:45:01.424Z,7.77
2022-10-29T07:46:02.138Z,7.77
2022-10-29T07:47:01.362Z,7.75
2022-10-29T07:48:02.924Z,7.75
2022-10-29T07:49:01.336Z,7.75
2022-10-29T07:50:01.319Z,7.71
2022-10-29T07:51:04.006Z,7.72
2022-10-29T07:52:01.276Z,7.75
2022-10-29T07:53:01.275Z,7.71
2022-10-29T07:54:01.256Z,7.71
2022-10-29T07:55:01.258Z,7.69
2022-10-29T07:56:01.257Z,7.69
2022-10-29T07:57:01.270Z,7.66
2022-10-29T07:58:01.237Z,7.66
2022-10-29T07:59:01.206Z,7.63
2022-10-29T08:00:02.284Z,7.63
2022-10-29T08:01:01.247Z,7.63
2022-10-29T08:02:01.200Z,7.62
2022-10-29T08:03:01.170Z,7.63
2022-10-29T08:04:01.182Z,7.62
2022-10-29T08:05:01.144Z,7.60
2022-10-29T08:06:01.158Z,7.62
2022-10-29T08:07:01.134Z,7.62
2022-10-29T08:08:01.284Z,7.62
2022-10-29T08:09:01.211Z,7.60
2022-10-29T08:10:01.088Z,7.59
2022-10-29T08:11:01.064Z,7.56
2022-10-29T08:12:01.067Z,7.56
2022-10-29T08:13:01.662Z,7.55
2022-10-29T08:14:01.058Z,7.55
2022-10-29T08:15:01.291Z,7.53
2022-10-29T08:16:01.816Z,7.53
2022-10-29T08:17:01.003Z,7.55
2022-10-29T08:18:01.248Z,7.55
2022-10-29T08:19:01.038Z,7.58
2022-10-29T08:20:00.999Z,7.58
2022-10-29T08:21:01.062Z,7.60
2022-10-29T08:22:01.118Z,7.60
2022-10-29T08:23:01.556Z,7.60
2022-10-29T08:24:01.205Z,7.60
2022-10-29T08:25:00.922Z,7.62
2022-10-29T08:26:00.912Z,7.66
2022-10-29T08:27:00.932Z,7.66
2022-10-29T08:28:01.121Z,7.66
2022-10-29T08:29:00.881Z,7.63
2022-10-29T08:30:01.385Z,7.63
2022-10-29T08:31:01.108Z,7.62
2022-10-29T08:32:00.938Z,7.60
2022-10-29T08:33:01.296Z,7.60
2022-10-29T08:34:00.825Z,7.60
2022-10-29T08:35:00.806Z,7.60
2022-10-29T08:36:00.947Z,7.60
2022-10-29T08:37:01.071Z,7.62
2022-10-29T08:38:00.811Z,7.62
2022-10-29T08:39:00.764Z,7.62
2022-10-29T08:40:00.757Z,7.60
2022-10-29T08:41:00.758Z,7.58
2022-10-29T08:42:00.812Z,7.56
2022-10-29T08:43:00.713Z,7.52
2022-10-29T08:45:00.711Z,7.47
2022-10-29T08:46:01.351Z,7.45
2022-10-29T08:47:03.769Z,7.45
2022-10-29T08:48:00.686Z,7.47
2022-10-29T08:49:00.709Z,7.44
2022-10-29T08:50:00.681Z,7.44
2022-10-29T08:51:00.625Z,7.44
2022-10-29T08:52:00.757Z,7.42
2022-10-29T08:55:00.610Z,7.40
2022-10-29T08:56:01.304Z,7.40
2022-10-29T08:57:00.560Z,7.37
2022-10-29T08:58:01.118Z,7.35
2022-10-29T08:59:01.519Z,7.34
2022-10-29T09:00:01.116Z,7.34
2022-10-29T09:01:01.057Z,7.32
2022-10-29T09:02:00.995Z,7.34
2022-10-29T09:03:00.788Z,7.34
2022-10-29T09:04:00.701Z,7.40
2022-10-29T09:05:00.699Z,7.45
2022-10-29T09:06:00.737Z,7.49
2022-10-29T09:07:00.552Z,7.55
2022-10-29T09:08:02.319Z,7.67
2022-10-29T09:09:00.606Z,7.78
2022-10-29T09:10:00.691Z,7.92
2022-10-29T09:11:00.937Z,7.99
2022-10-29T09:12:01.381Z,8.02
2022-10-29T09:13:00.649Z,8.00
2022-10-29T09:14:01.687Z,7.97
2022-10-29T09:15:00.666Z,7.96
2022-10-29T09:16:00.615Z,7.93
2022-10-29T09:17:00.572Z,7.89
2022-10-29T09:18:00.664Z,7.85
2022-10-29T09:19:00.598Z,7.82
2022-10-29T09:20:01.048Z,7.78
2022-10-29T09:21:00.431Z,7.77
2022-10-29T09:22:00.614Z,7.75
2022-10-29T09:23:00.623Z,7.72
2022-10-29T09:24:00.820Z,7.71
2022-10-29T09:25:01.020Z,7.69
2022-10-29T09:26:00.661Z,7.67
2022-10-29T09:27:00.407Z,7.66
2022-10-29T09:28:00.489Z,7.63
2022-10-29T09:29:00.630Z,7.63
2022-10-29T09:30:00.551Z,7.63
2022-10-29T09:31:01.362Z,7.63
2022-10-29T09:32:00.836Z,7.62
2022-10-29T09:33:02.158Z,7.62
2022-10-29T09:34:01.851Z,7.60
2022-10-29T09:35:00.326Z,7.53
2022-10-29T09:36:00.524Z,7.41
2022-10-29T09:37:00.710Z,7.32
2022-10-29T09:38:00.594Z,7.23
2022-10-29T09:39:00.726Z,7.17
2022-10-29T09:40:01.175Z,7.13
2022-10-29T09:41:00.986Z,7.12
2022-10-29T09:42:00.282Z,7.12
2022-10-29T09:43:00.362Z,7.15
2022-10-29T09:44:01.258Z,7.15
2022-10-29T09:45:01.945Z,7.15
2022-10-29T09:46:00.015Z,7.16
2022-10-29T09:47:00.585Z,7.17
2022-10-29T09:48:01.158Z,7.20
2022-10-29T09:49:00.076Z,7.26
2022-10-29T09:50:05.268Z,7.24
2022-10-29T09:50:59.966Z,7.23
2022-10-29T09:51:59.976Z,7.20
2022-10-29T09:53:00.158Z,7.19
2022-10-29T09:53:59.937Z,7.19
2022-10-29T09:54:59.979Z,7.17
2022-10-29T09:55:59.911Z,7.16
2022-10-29T09:56:59.885Z,7.17
2022-10-29T09:58:08.075Z,7.16
2022-10-29T09:58:59.862Z,7.16
2022-10-29T10:00:00.538Z,7.09
2022-10-29T10:01:00.361Z,7.08
2022-10-29T10:01:59.898Z,7.07
2022-10-29T10:03:00.121Z,7.04
2022-10-29T10:04:59.808Z,6.99
2022-10-29T10:05:59.782Z,7.04
2022-10-29T10:06:59.788Z,7.09
2022-10-29T10:07:59.766Z,7.13
2022-10-29T10:09:00.861Z,7.22
2022-10-29T10:09:59.792Z,7.23
2022-10-29T10:11:02.355Z,7.26
2022-10-29T10:11:59.776Z,7.32
2022-10-29T10:12:59.761Z,7.37
2022-10-29T10:13:59.762Z,7.38
2022-10-29T10:14:59.711Z,7.41
2022-10-29T10:15:59.745Z,7.44
2022-10-29T10:16:59.682Z,7.49
2022-10-29T10:18:00.306Z,7.53
2022-10-29T10:18:59.658Z,7.62
2022-10-29T10:19:59.644Z,7.63
2022-10-29T10:20:59.640Z,7.74
2022-10-29T10:21:59.620Z,7.81
2022-10-29T10:22:59.902Z,7.89
2022-10-29T10:23:59.599Z,7.93
2022-10-29T10:24:59.608Z,7.77
2022-10-29T10:26:04.139Z,7.49
2022-10-29T10:26:59.687Z,7.15
2022-10-29T10:27:59.771Z,6.73
2022-10-29T10:29:01.220Z,6.50
2022-10-29T10:29:59.527Z,6.33
2022-10-29T10:30:59.892Z,6.21
2022-10-29T10:31:59.538Z,6.10
2022-10-29T10:32:59.539Z,6.10
2022-10-29T10:33:59.502Z,6.14
2022-10-29T10:34:59.461Z,6.16
2022-10-29T10:36:00.494Z,6.16
2022-10-29T10:36:59.465Z,6.16
2022-10-29T10:38:00.331Z,6.14
2022-10-29T10:38:59.544Z,6.13
2022-10-29T10:39:59.428Z,6.11
2022-10-29T10:41:00.551Z,6.14
2022-10-29T10:41:59.938Z,6.13
2022-10-29T10:43:03.099Z,6.13
2022-10-29T10:43:59.433Z,6.11
2022-10-29T10:44:59.839Z,6.14
2022-10-29T10:45:59.442Z,6.16
2022-10-29T10:47:00.460Z,6.21
2022-10-29T10:47:59.967Z,6.22
2022-10-29T10:48:59.314Z,6.30
2022-10-29T10:50:00.364Z,6.33
2022-10-29T10:50:59.417Z,6.43
2022-10-29T10:51:59.528Z,6.30
2022-10-29T10:52:59.680Z,6.01
2022-10-29T10:54:00.229Z,5.71
2022-10-29T10:54:59.477Z,5.60
2022-10-29T10:55:59.254Z,5.55
2022-10-29T10:56:59.297Z,5.52
2022-10-29T10:57:59.232Z,5.48
2022-10-29T10:58:59.797Z,5.48
2022-10-29T11:00:02.480Z,5.40
2022-10-29T11:01:00.364Z,5.32
2022-10-29T11:01:59.364Z,5.30
2022-10-29T11:02:59.615Z,5.30
2022-10-29T11:03:59.199Z,5.35
2022-10-29T11:05:00.930Z,5.40
2022-10-29T11:05:59.132Z,5.43
2022-10-29T11:06:59.162Z,5.49
2022-10-29T11:08:00.086Z,5.55
2022-10-29T11:08:59.134Z,5.64
2022-10-29T11:09:59.983Z,5.74
2022-10-29T11:10:59.113Z,5.75
2022-10-29T11:11:59.442Z,5.73
2022-10-29T11:12:59.075Z,5.71
2022-10-29T11:13:59.070Z,5.66
2022-10-29T11:14:59.091Z,5.55
2022-10-29T11:15:59.023Z,5.43
2022-10-29T11:16:59.046Z,5.35
2022-10-29T11:17:59.193Z,5.32
2022-10-29T11:18:59.106Z,5.34
2022-10-29T11:19:58.969Z,5.34
2022-10-29T11:20:58.971Z,5.34
2022-10-29T11:21:58.974Z,5.34
2022-10-29T11:22:59.330Z,5.34
2022-10-29T11:23:58.960Z,5.37
2022-10-29T11:24:59.119Z,5.35
2022-10-29T11:25:58.931Z,5.40
2022-10-29T11:26:58.906Z,5.43
2022-10-29T11:27:58.893Z,5.49
2022-10-29T11:28:58.857Z,5.50
2022-10-29T11:29:58.890Z,5.53
2022-10-29T11:30:59.987Z,5.56
2022-10-29T11:31:59.264Z,5.60
2022-10-29T11:33:01.134Z,5.64
2022-10-29T11:33:58.993Z,5.68
2022-10-29T11:35:00.229Z,5.68
2022-10-29T11:36:01.494Z,5.70
2022-10-29T11:37:00.326Z,5.66
2022-10-29T11:37:59.148Z,5.67
2022-10-29T11:38:58.745Z,5.71
2022-10-29T11:39:58.767Z,5.74
2022-10-29T11:40:59.988Z,5.77
2022-10-29T11:43:50.023Z,5.64
2022-10-29T11:44:51.002Z,5.66
2022-10-29T11:45:51.048Z,5.60
2022-10-29T11:46:51.281Z,5.52
2022-10-29T11:47:50.987Z,5.41
2022-10-29T11:48:51.127Z,5.34
2022-10-29T11:49:50.939Z,5.30
2022-10-29T11:50:51.790Z,5.27
2022-10-29T11:51:50.950Z,5.25
2022-10-29T11:52:50.927Z,5.28
2022-10-29T11:53:51.623Z,5.23
2022-10-29T11:54:50.892Z,5.22
2022-10-29T11:55:51.781Z,5.23
2022-10-29T11:56:50.892Z,5.27
2022-10-29T11:57:50.857Z,5.25
2022-10-29T11:58:50.865Z,5.22
2022-10-29T11:59:50.823Z,5.20
2022-10-29T12:00:50.812Z,5.19
2022-10-29T12:01:50.946Z,5.27
2022-10-29T12:02:50.785Z,5.30
2022-10-29T12:03:50.790Z,5.34
2022-10-29T12:04:50.800Z,5.37
2022-10-29T12:05:50.758Z,5.40
2022-10-29T12:06:50.794Z,5.43
2022-10-29T12:07:50.730Z,5.52
2022-10-29T12:08:50.719Z,5.48
2022-10-29T12:09:50.713Z,5.43
2022-10-29T12:10:50.751Z,5.37
2022-10-29T12:11:50.717Z,5.32
2022-10-29T12:12:50.696Z,5.28
2022-10-29T12:13:50.705Z,5.22
2022-10-29T12:14:50.657Z,5.20
2022-10-29T12:15:50.645Z,5.20
2022-10-29T12:16:50.658Z,5.17
2022-10-29T12:17:50.717Z,5.20
2022-10-29T12:18:50.615Z,5.13
2022-10-29T12:19:50.786Z,5.09
2022-10-29T12:20:50.580Z,5.05
2022-10-29T12:21:50.590Z,5.05
2022-10-29T12:22:50.564Z,5.07
2022-10-29T12:23:50.551Z,5.09
2022-10-29T12:24:51.444Z,5.10
2022-10-29T12:25:50.515Z,5.07
2022-10-29T12:26:50.530Z,5.07
2022-10-29T12:27:50.547Z,5.05
2022-10-29T12:28:50.497Z,5.01
2022-10-29T12:29:50.570Z,4.92
2022-10-29T12:30:50.489Z,4.89
2022-10-29T12:31:50.460Z,4.83
2022-10-29T12:32:50.462Z,4.76
2022-10-29T12:33:50.468Z,4.72
2022-10-29T12:34:50.439Z,4.69
2022-10-29T12:35:50.503Z,4.65
2022-10-29T12:36:53.320Z,4.59
2022-10-29T12:37:50.420Z,4.58
2022-10-29T12:38:50.383Z,4.54
2022-10-29T12:39:50.382Z,4.50
2022-10-29T12:40:50.360Z,4.47
2022-10-29T12:41:50.384Z,4.50
2022-10-29T12:42:50.370Z,4.51
2022-10-29T12:43:50.362Z,4.46
2022-10-29T12:44:50.314Z,4.44
2022-10-29T12:46:14.378Z,4.44
2022-10-29T12:46:50.958Z,4.40
2022-10-29T12:47:50.279Z,4.39
2022-10-29T12:48:50.294Z,4.37
2022-10-29T12:49:50.282Z,4.36
2022-10-29T12:50:50.274Z,4.37
2022-10-29T12:51:50.304Z,4.37
2022-10-29T12:52:50.814Z,4.39
2022-10-29T12:53:50.216Z,4.39
2022-10-29T12:54:50.210Z,4.39
2022-10-29T12:55:50.215Z,4.40
2022-10-29T12:56:50.624Z,4.40
2022-10-29T12:57:50.502Z,4.39
2022-10-29T12:58:50.152Z,4.42
2022-10-29T12:59:50.155Z,4.42
2022-10-29T13:00:50.170Z,4.47
2022-10-29T13:02:10.653Z,4.44
2022-10-29T13:02:50.345Z,4.44
2022-10-29T13:03:50.180Z,4.43
2022-10-29T13:04:50.106Z,4.44
2022-10-29T13:05:51.702Z,4.46
2022-10-29T13:06:50.086Z,4.50
2022-10-29T13:07:50.074Z,4.54
2022-10-29T13:08:50.065Z,4.57
2022-10-29T13:09:50.032Z,4.61
2022-10-29T13:10:50.955Z,4.65
2022-10-29T13:11:50.009Z,4.70
2022-10-29T13:12:50.002Z,4.73
2022-10-29T13:13:49.989Z,4.75
2022-10-29T13:14:49.985Z,4.76
2022-10-29T13:15:50.019Z,4.80
2022-10-29T13:16:50.003Z,4.77
2022-10-29T13:17:49.977Z,4.76
2022-10-29T13:18:49.979Z,4.76
2022-10-29T13:19:49.926Z,4.75
2022-10-29T13:20:49.901Z,4.75
2022-10-29T13:21:49.898Z,4.76
2022-10-29T13:22:49.904Z,4.76
2022-10-29T13:23:49.910Z,4.77
2022-10-29T13:24:49.898Z,4.76
2022-10-29T13:25:49.853Z,4.77
2022-10-29T13:26:49.860Z,4.76
2022-10-29T13:27:49.827Z,4.77
2022-10-29T13:28:49.851Z,4.77
2022-10-29T13:29:49.863Z,4.77